Time;durP1;ratioP1;P1;durP2;ratioP2;P2;SDS_P1;SDS_P2;PMS_P1;PMS_P2;Temp;Humidity;BMP_temperature;BMP_pressure;BME280_temperature;BME280_humidity;BME280_pressure;Samples;Min_cycle;Max_cycle;Signal;HPM_P1;HPM_P2
2022/11/03 00:01:39;;;;;;;5.72;1.85;;;4.40;99.90;;;;;;5095932;28;20028;-77
2022/11/03 00:04:06;;;;;;;3.13;1.85;;;4.50;99.90;;;;;;5098219;28;20034;-76
2022/11/03 00:06:33;;;;;;;3.25;1.98;;;4.30;99.90;;;;;;5094506;28;20058;-78
2022/11/03 00:09:00;;;;;;;2.33;1.63;;;4.40;99.90;;;;;;5097307;28;20050;-75
2022/11/03 00:11:26;;;;;;;2.25;1.70;;;4.10;99.90;;;;;;5078934;28;20015;-75
2022/11/03 00:13:52;;;;;;;5.50;3.22;;;4.00;99.90;;;;;;5093339;28;20039;-76
2022/11/03 00:16:17;;;;;;;6.38;3.25;;;3.90;99.90;;;;;;5085012;28;20020;-75
2022/11/03 00:18:43;;;;;;;20.65;3.40;;;4.00;99.90;;;;;;5092238;28;20080;-76
2022/11/03 00:21:11;;;;;;;3.28;2.63;;;4.60;99.90;;;;;;5072568;28;20023;-76
2022/11/03 00:23:39;;;;;;;3.15;2.38;;;4.60;99.90;;;;;;5074492;28;20024;-76
2022/11/03 00:26:20;;;;;;;6.68;3.35;;;4.10;99.90;;;;;;5075066;28;20032;-77
2022/11/03 00:28:47;;;;;;;12.25;4.60;;;4.00;99.90;;;;;;5071640;28;20016;-76
2022/11/03 00:31:22;;;;;;;3.90;3.50;;;4.00;99.90;;;;;;5078133;28;20484;-76
2022/11/03 00:33:48;;;;;;;5.63;2.30;;;4.10;99.90;;;;;;5073922;28;20588;-75
2022/11/03 00:36:17;;;;;;;12.23;3.22;;;6.10;99.90;;;;;;5091816;28;20032;-76
2022/11/03 00:38:43;;;;;;;3.92;1.90;;;6.20;99.90;;;;;;5088781;28;20116;-76
2022/11/03 00:41:09;;;;;;;6.47;2.92;;;3.90;99.90;;;;;;5067618;28;20028;-76
2022/11/03 00:43:36;;;;;;;6.60;3.05;;;3.70;99.90;;;;;;5068681;28;20040;-76
2022/11/03 00:46:04;;;;;;;8.00;2.08;;;3.60;99.90;;;;;;5068733;28;20021;-76
2022/11/03 00:48:30;;;;;;;2.85;2.05;;;3.70;99.90;;;;;;5068644;28;20276;-75
2022/11/03 00:51:02;;;;;;;3.45;1.95;;;3.60;99.90;;;;;;5068743;28;20056;-75
2022/11/03 00:53:28;;;;;;;4.35;2.47;;;3.60;99.90;;;;;;5086696;28;20476;-75
2022/11/03 00:55:54;;;;;;;4.13;2.35;;;4.00;99.90;;;;;;5087020;28;20027;-76
2022/11/03 00:58:19;;;;;;;5.97;2.88;;;5.00;99.90;;;;;;5087264;28;20028;-77
2022/11/03 01:00:45;;;;;;;6.07;4.20;;;3.80;99.90;;;;;;5068775;28;20030;-75
2022/11/03 01:03:11;;;;;;;6.25;2.00;;;3.50;99.90;;;;;;5086807;28;20031;-77
2022/11/03 01:08:35;;;;;;;3.13;2.17;;;3.60;99.90;;;;;;5086988;28;20429;-75
2022/11/03 01:13:50;;;;;;;12.32;5.82;;;3.50;99.90;;;;;;5087067;28;20438;-76
2022/11/03 01:16:16;;;;;;;14.20;5.63;;;3.50;99.90;;;;;;5086937;28;20024;-75
2022/11/03 01:18:41;;;;;;;10.00;3.97;;;3.50;99.90;;;;;;5086837;28;20051;-77
2022/11/03 01:21:07;;;;;;;5.13;2.55;;;3.70;99.90;;;;;;5086595;28;20048;-76
2022/11/03 01:23:34;;;;;;;7.60;3.10;;;5.10;99.90;;;;;;5086924;28;20115;-76
2022/11/03 01:26:07;;;;;;;5.97;3.08;;;4.10;99.90;;;;;;5086511;28;20557;-76
2022/11/03 01:28:34;;;;;;;10.35;3.63;;;3.50;99.90;;;;;;5103575;28;20051;-76
2022/11/03 01:31:08;;;;;;;4.88;3.33;;;3.60;99.90;;;;;;5107047;28;20066;-77
2022/11/03 01:33:34;;;;;;;2.45;2.10;;;3.30;99.90;;;;;;5106397;28;20039;-76
2022/11/03 01:36:00;;;;;;;3.83;1.95;;;3.60;99.90;;;;;;5106717;28;20020;-76
2022/11/03 01:38:25;;;;;;;4.40;2.30;;;3.10;99.90;;;;;;5107057;28;20032;-77
2022/11/03 01:40:51;;;;;;;2.92;2.28;;;3.10;99.90;;;;;;5107155;28;20027;-76
2022/11/03 01:43:22;;;;;;;2.72;1.80;;;4.00;99.90;;;;;;5087858;28;20040;-76
2022/11/03 01:45:52;;;;;;;4.90;1.83;;;3.00;99.90;;;;;;5088305;28;20065;-75
2022/11/03 01:48:19;;;;;;;;;;;4.20;99.90;;;;;;5091021;28;20059;-77
2022/11/03 01:50:47;;;;;;;3.08;2.17;;;3.00;99.90;;;;;;5110321;28;19912;-76
2022/11/03 01:53:15;;;;;;;4.43;1.90;;;4.30;99.90;;;;;;5091969;28;20072;-76
2022/11/03 01:55:41;;;;;;;2.35;2.13;;;3.00;99.90;;;;;;5110382;28;20038;-76
2022/11/03 01:58:12;;;;;;;3.03;2.72;;;3.40;99.90;;;;;;5092037;28;20391;-77
2022/11/03 02:00:44;;;;;;;2.00;1.40;;;1.50;99.90;;;;;;5110647;28;20031;-76
2022/11/03 02:03:10;;;;;;;2.05;1.52;;;3.10;99.90;;;;;;5091916;28;20019;-75
2022/11/03 02:05:37;;;;;;;5.15;3.53;;;3.20;99.90;;;;;;5110291;28;20114;-76
2022/11/03 02:08:12;;;;;;;4.55;2.08;;;3.00;99.90;;;;;;5110206;28;20456;-75
2022/11/03 02:10:38;;;;;;;8.70;2.95;;;3.00;99.90;;;;;;5091237;28;20506;-76
2022/11/03 02:13:15;;;;;;;12.25;4.05;;;3.00;99.90;;;;;;5109543;28;20019;-76
2022/11/03 02:15:41;;;;;;;5.78;3.13;;;3.50;99.90;;;;;;5109963;28;20118;-76
2022/11/03 02:18:09;;;;;;;7.63;3.55;;;3.10;99.90;;;;;;5109531;28;20147;-76
2022/11/03 02:20:35;;;;;;;6.43;2.60;;;3.10;99.90;;;;;;5091680;28;20538;-75
2022/11/03 02:23:23;;;;;;;7.03;3.22;;;3.10;99.90;;;;;;5091577;28;20023;-76
2022/11/03 02:25:54;;;;;;;2.50;1.85;;;3.10;99.90;;;;;;5109480;28;20073;-76
2022/11/03 02:28:26;;;;;;;6.72;2.25;;;3.10;99.90;;;;;;5094633;28;20020;-76
2022/11/03 02:31:15;;;;;;;4.28;2.53;;;3.10;99.90;;;;;;5089636;28;20113;-75
2022/11/03 02:34:04;;;;;;;4.85;2.55;;;3.10;99.90;;;;;;5070648;28;20543;-76
2022/11/03 02:37:04;;;;;;;4.50;2.65;;;3.00;99.90;;;;;;5089847;28;20035;-75
2022/11/03 02:39:38;;;;;;;4.78;2.13;;;2.90;99.90;;;;;;5035163;28;20112;-76
2022/11/03 02:42:05;;;;;;;3.58;1.95;;;2.80;99.90;;;;;;5089817;28;20042;-76
2022/11/03 02:44:33;;;;;;;2.53;2.08;;;2.90;99.90;;;;;;5089301;28;20020;-75
2022/11/03 02:47:04;;;;;;;3.33;1.92;;;2.80;99.90;;;;;;5089330;28;20055;-76
2022/11/03 02:49:30;;;;;;;2.60;1.92;;;3.00;99.90;;;;;;5088846;28;20028;-76
2022/11/03 02:52:00;;;;;;;1.45;1.30;;;3.50;99.90;;;;;;5088825;28;20085;-75
2022/11/03 02:54:32;;;;;;;2.53;1.85;;;3.10;99.90;;;;;;5088975;28;20068;-76
2022/11/03 02:57:20;;;;;;;2.03;1.13;;;3.00;99.90;;;;;;5089031;28;20078;-75
2022/11/03 02:59:56;;;;;;;4.07;1.80;;;2.90;99.90;;;;;;5070370;28;20024;-75
2022/11/03 03:02:32;;;;;;;1.90;1.30;;;2.90;99.90;;;;;;5070472;28;20484;-75
2022/11/03 03:05:00;;;;;;;1.88;1.67;;;2.80;99.90;;;;;;5089123;28;20036;-75
2022/11/03 03:07:34;;;;;;;2.57;1.87;;;2.70;99.90;;;;;;5088732;28;20024;-76
2022/11/03 03:10:11;;;;;;;6.88;4.00;;;2.80;99.90;;;;;;5089035;28;20032;-75
2022/11/03 03:12:45;;;;;;;13.27;2.97;;;2.70;99.90;;;;;;5070609;28;20024;-75
2022/11/03 03:15:11;;;;;;;2.20;1.98;;;2.80;99.90;;;;;;5070268;28;20039;-75
2022/11/03 03:17:52;;;;;;;1.40;1.30;;;4.10;99.90;;;;;;5088427;28;20408;-77
2022/11/03 03:20:30;;;;;;;3.03;1.42;;;3.00;99.90;;;;;;5070528;28;20507;-75
2022/11/03 03:23:00;;;;;;;3.17;1.80;;;3.20;99.90;;;;;;5088477;28;20027;-75
2022/11/03 03:25:33;;;;;;;1.58;1.48;;;3.20;99.90;;;;;;5088126;28;20032;-75
2022/11/03 03:28:14;;;;;;;4.05;1.52;;;3.10;99.90;;;;;;5100418;28;20380;-76
2022/11/03 03:30:42;;;;;;;1.88;1.50;;;3.10;99.90;;;;;;5090448;28;20024;-75
2022/11/03 03:33:08;;;;;;;2.53;1.20;;;3.00;99.90;;;;;;5084978;28;20048;-76
2022/11/03 03:35:38;;;;;;;2.13;1.92;;;3.30;99.90;;;;;;5086419;28;20028;-75
2022/11/03 03:38:17;;;;;;;3.38;1.83;;;3.20;99.90;;;;;;5085336;28;20051;-75
2022/11/03 03:40:45;;;;;;;2.70;2.20;;;3.70;99.90;;;;;;5085142;28;20039;-75
2022/11/03 03:43:13;;;;;;;4.13;1.83;;;3.40;99.90;;;;;;5084731;28;20024;-78
2022/11/03 03:45:42;;;;;;;1.70;1.60;;;3.70;99.90;;;;;;5085619;28;20318;-76
2022/11/03 03:48:08;;;;;;;3.30;2.28;;;4.00;99.90;;;;;;5085353;28;20024;-75
2022/11/03 03:50:37;;;;;;;1.77;1.50;;;3.90;99.90;;;;;;5086829;28;20039;-75
2022/11/03 03:53:05;;;;;;;2.45;1.38;;;3.40;99.90;;;;;;5087945;28;20027;-75
2022/11/03 03:55:37;;;;;;;2.38;1.67;;;3.20;99.90;;;;;;5087984;28;20032;-75
2022/11/03 03:58:06;;;;;;;3.55;1.38;;;3.40;99.90;;;;;;5086884;28;20300;-75
2022/11/03 04:00:32;;;;;;;3.90;2.50;;;3.30;99.90;;;;;;5087660;28;20580;-76
2022/11/03 04:02:58;;;;;;;2.80;2.00;;;3.30;99.90;;;;;;5087470;28;20134;-78
2022/11/03 04:05:25;;;;;;;1.38;1.27;;;3.40;99.90;;;;;;5087572;28;20035;-75
2022/11/03 04:07:51;;;;;;;2.25;1.80;;;3.70;99.90;;;;;;5086349;28;20266;-76
2022/11/03 04:10:18;;;;;;;2.45;1.95;;;3.40;99.90;;;;;;5085889;28;20764;-75
2022/11/03 04:23:45;;;;;;;3.05;2.17;;;3.40;99.90;;;;;;5065723;28;20028;-76
2022/11/03 04:26:14;;;;;;;2.58;1.63;;;3.50;99.90;;;;;;5087107;28;20020;-76
2022/11/03 04:28:41;;;;;;;2.70;1.80;;;3.40;99.90;;;;;;5069746;28;20013;-75
2022/11/03 04:31:13;;;;;;;2.40;1.65;;;3.70;99.90;;;;;;5066993;28;20106;-76
2022/11/03 04:33:40;;;;;;;2.70;1.70;;;3.60;99.90;;;;;;5085668;28;20312;-75
2022/11/03 04:36:20;;;;;;;5.20;1.92;;;3.50;99.90;;;;;;5087108;28;20258;-75
2022/11/03 04:38:46;;;;;;;3.50;2.00;;;3.50;99.90;;;;;;5093005;28;20574;-77
2022/11/03 04:41:19;;;;;;;2.88;2.28;;;3.50;99.90;;;;;;5088648;28;20407;-76
2022/11/03 04:43:48;;;;;;;3.40;2.75;;;3.20;99.90;;;;;;5108328;28;20483;-75
2022/11/03 04:46:25;;;;;;;8.90;3.70;;;3.10;99.90;;;;;;5089664;28;20439;-76
2022/11/03 04:48:52;;;;;;;6.75;3.22;;;3.10;99.90;;;;;;5107333;28;20027;-75
2022/11/03 04:51:23;;;;;;;3.10;2.42;;;3.30;99.90;;;;;;5107194;28;20019;-76
2022/11/03 04:54:10;;;;;;;2.97;2.13;;;3.30;99.90;;;;;;5107201;28;20042;-75
2022/11/03 04:56:35;;;;;;;2.00;1.15;;;3.20;99.90;;;;;;5071230;28;20035;-75
2022/11/03 04:59:01;;;;;;;2.45;2.25;;;3.10;99.90;;;;;;5088953;28;20480;-75
2022/11/03 05:01:28;;;;;;;3.80;2.20;;;3.10;99.90;;;;;;5106993;28;20104;-75
2022/11/03 05:03:54;;;;;;;2.58;2.08;;;4.40;99.90;;;;;;5107134;28;20035;-75
2022/11/03 05:06:25;;;;;;;4.57;2.45;;;3.10;99.90;;;;;;5089598;28;20027;-76
2022/11/03 05:08:57;;;;;;;3.05;2.20;;;3.20;99.90;;;;;;5107224;28;20032;-75
2022/11/03 05:11:31;;;;;;;1.50;1.40;;;3.20;99.90;;;;;;5089287;28;20028;-77
2022/11/03 05:14:03;;;;;;;4.78;1.95;;;4.10;99.90;;;;;;5106709;28;20310;-75
2022/11/03 05:16:30;;;;;;;3.58;2.05;;;3.40;99.90;;;;;;5105533;28;20073;-76
2022/11/03 05:18:56;;;;;;;10.63;1.75;;;3.40;99.90;;;;;;5107038;28;20046;-76
2022/11/03 05:21:24;;;;;;;3.00;1.50;;;3.30;99.90;;;;;;5106735;28;20023;-76
2022/11/03 05:23:57;;;;;;;3.17;1.75;;;3.30;99.90;;;;;;5091935;28;20031;-75
2022/11/03 05:26:30;;;;;;;1.33;1.23;;;3.50;99.90;;;;;;5110824;28;20016;-75
2022/11/03 05:29:14;;;;;;;6.28;1.50;;;3.50;99.90;;;;;;5090951;28;20078;-75
2022/11/03 05:31:41;;;;;;;1.58;1.45;;;3.50;99.90;;;;;;5089564;28;20669;-75
2022/11/03 05:34:12;;;;;;;2.83;2.45;;;3.40;99.90;;;;;;5090348;28;20511;-76
2022/11/03 05:36:38;;;;;;;1.60;1.35;;;3.30;99.90;;;;;;5090342;28;20027;-76
2022/11/03 05:39:30;;;;;;;2.00;1.55;;;3.30;99.90;;;;;;5090863;28;20024;-75
2022/11/03 05:41:58;;;;;;;2.00;1.60;;;3.40;99.90;;;;;;5090053;28;20403;-75
2022/11/03 05:44:35;;;;;;;3.03;2.13;;;3.40;99.90;;;;;;5071983;28;20024;-77
2022/11/03 05:47:07;;;;;;;1.30;1.20;;;3.40;99.90;;;;;;5089683;28;20030;-76
2022/11/03 05:49:33;;;;;;;1.77;1.58;;;3.30;99.90;;;;;;5071531;28;20028;-75
2022/11/03 05:51:59;;;;;;;3.05;1.23;;;3.20;99.90;;;;;;5071246;28;20024;-76
2022/11/03 05:54:31;;;;;;;3.45;1.95;;;3.40;99.90;;;;;;5089971;28;20043;-75
2022/11/03 05:56:57;;;;;;;1.75;1.63;;;3.20;99.90;;;;;;5089343;28;20024;-76
2022/11/03 05:59:25;;;;;;;1.67;1.20;;;3.40;99.90;;;;;;5071552;28;20089;-75
2022/11/03 06:01:52;;;;;;;3.85;1.63;;;3.60;99.90;;;;;;5089562;28;20016;-75
2022/11/03 06:04:23;;;;;;;3.33;1.83;;;4.00;99.90;;;;;;5090556;28;20129;-75
2022/11/03 06:06:54;;;;;;;3.13;2.10;;;3.60;99.90;;;;;;5089374;28;20067;-76
2022/11/03 06:09:24;;;;;;;4.07;1.63;;;4.70;99.90;;;;;;5089185;28;20032;-75
2022/11/03 06:11:50;;;;;;;;;;;3.40;99.90;;;;;;5090701;28;20215;-76
2022/11/03 06:14:24;;;;;;;7.40;2.22;;;3.90;99.90;;;;;;5070926;28;19919;-76
2022/11/03 06:16:53;;;;;;;10.73;2.92;;;3.80;99.90;;;;;;5071299;28;20449;-76
2022/11/03 06:19:30;;;;;;;2.97;1.98;;;3.60;99.90;;;;;;5089606;28;20451;-75
2022/11/03 06:22:18;;;;;;;2.22;1.90;;;3.50;99.90;;;;;;5071159;28;20032;-76
2022/11/03 06:24:44;;;;;;;1.98;1.88;;;3.70;99.90;;;;;;5090213;28;20016;-75
2022/11/03 06:27:21;;;;;;;2.33;1.80;;;5.60;99.90;;;;;;5094973;28;20098;-76
2022/11/03 06:30:00;;;;;;;2.95;1.40;;;3.60;99.90;;;;;;5109670;28;20015;-77
2022/11/03 06:32:27;;;;;;;3.10;2.17;;;3.70;99.90;;;;;;5090779;28;20039;-76
2022/11/03 06:34:57;;;;;;;2.85;1.90;;;3.60;99.90;;;;;;5108743;28;20055;-76
2022/11/03 06:37:30;;;;;;;4.85;2.05;;;3.70;99.90;;;;;;5110280;28;20016;-76
2022/11/03 06:40:15;;;;;;;4.70;2.17;;;3.80;99.90;;;;;;5091151;28;20066;-76
2022/11/03 06:42:41;;;;;;;3.58;1.77;;;3.90;99.90;;;;;;5109492;28;20028;-76
2022/11/03 06:45:19;;;;;;;2.53;1.60;;;4.00;99.90;;;;;;5109508;28;20027;-76
2022/11/03 06:47:45;;;;;;;6.05;3.20;;;6.00;99.90;;;;;;5109408;28;20100;-75
2022/11/03 06:50:31;;;;;;;3.15;2.13;;;4.10;99.90;;;;;;5109342;28;20028;-76
2022/11/03 06:53:02;;;;;;;11.88;2.45;;;5.60;99.90;;;;;;5109482;28;20172;-76
2022/11/03 06:55:30;;;;;;;3.55;2.67;;;4.40;99.90;;;;;;5109208;28;20036;-76
2022/11/03 06:58:25;;;;;;;7.25;3.28;;;4.70;99.90;;;;;;5109344;28;20064;-75
2022/11/03 07:00:51;;;;;;;4.40;3.17;;;4.60;99.90;;;;;;5106544;28;20032;-76
2022/11/03 07:03:29;;;;;;;8.25;3.35;;;5.40;99.90;;;;;;5108737;28;20032;-75
2022/11/03 07:06:10;;;;;;;4.50;3.20;;;4.90;99.90;;;;;;5090452;28;20483;-75
2022/11/03 07:08:39;;;;;;;4.30;2.90;;;5.00;99.90;;;;;;5108902;28;20027;-76
2022/11/03 07:11:18;;;;;;;3.20;2.50;;;5.20;99.90;;;;;;5108508;28;20472;-76
2022/11/03 07:13:49;;;;;;;3.00;2.35;;;5.20;99.90;;;;;;5108784;28;20047;-75
2022/11/03 07:16:32;;;;;;;4.50;3.13;;;6.40;99.90;;;;;;5108418;28;20020;-76
2022/11/03 07:19:04;;;;;;;3.90;2.60;;;5.40;99.90;;;;;;5108905;28;20139;-76
2022/11/03 07:21:39;;;;;;;4.05;2.40;;;5.50;99.90;;;;;;5108320;28;20050;-75
2022/11/03 07:24:15;;;;;;;4.18;3.03;;;5.50;99.90;;;;;;5089797;28;20028;-75
2022/11/03 07:26:41;;;;;;;5.60;3.78;;;5.60;99.90;;;;;;5107449;28;20023;-76
2022/11/03 07:29:23;;;;;;;12.25;4.68;;;5.80;99.90;;;;;;5088164;28;20031;-76
2022/11/03 07:31:50;;;;;;;8.25;4.80;;;5.90;99.90;;;;;;5087505;28;20044;-76
2022/11/03 07:34:20;;;;;;;4.72;3.40;;;6.10;99.90;;;;;;5088040;28;20059;-75
2022/11/03 07:36:46;;;;;;;5.32;2.97;;;6.30;99.90;;;;;;5087970;28;20025;-76
2022/11/03 07:39:17;;;;;;;4.22;2.83;;;6.40;99.90;;;;;;5087542;28;20028;-75
2022/11/03 07:41:43;;;;;;;7.20;3.53;;;6.50;99.90;;;;;;5087754;28;20423;-76
2022/11/03 07:44:15;;;;;;;11.60;3.90;;;4.90;99.90;;;;;;5087540;28;20653;-76
2022/11/03 07:46:42;;;;;;;7.40;3.90;;;6.70;99.90;;;;;;5087532;28;20020;-75
2022/11/03 07:49:25;;;;;;;5.28;4.20;;;6.80;99.90;;;;;;5087605;28;20030;-76
2022/11/03 07:51:51;;;;;;;4.25;3.33;;;7.00;99.90;;;;;;5087525;28;20539;-76
2022/11/03 07:54:28;;;;;;;7.32;4.82;;;7.00;99.90;;;;;;5087468;28;20048;-76
2022/11/03 07:57:06;;;;;;;7.53;4.00;;;7.10;99.90;;;;;;5087967;28;20020;-75
2022/11/03 07:59:37;;;;;;;12.63;5.47;;;7.20;99.90;;;;;;5084404;28;20132;-75
2022/11/03 08:02:23;;;;;;;10.75;5.85;;;7.20;99.90;;;;;;5097170;28;20808;-75
2022/11/03 08:04:52;;;;;;;6.82;4.90;;;7.40;99.90;;;;;;5104815;28;20089;-75
2022/11/03 08:07:18;;;;;;;10.57;6.03;;;7.40;99.90;;;;;;5103859;28;20405;-76
2022/11/03 08:09:43;;;;;;;12.85;6.57;;;7.50;99.90;;;;;;5104474;28;20024;-75
2022/11/03 08:12:09;;;;;;;8.32;6.05;;;7.80;99.90;;;;;;5106324;28;20031;-75
2022/11/03 08:14:36;;;;;;;16.00;6.05;;;7.70;99.90;;;;;;5106288;28;20036;-75
2022/11/03 08:17:02;;;;;;;11.85;6.55;;;7.90;99.90;;;;;;5106441;28;20096;-76
2022/11/03 08:19:31;;;;;;;17.38;7.75;;;8.10;99.90;;;;;;5107306;28;20061;-76
2022/11/03 08:21:57;;;;;;;14.27;6.40;;;8.40;99.90;;;;;;5107101;28;20023;-75
2022/11/03 08:24:25;;;;;;;10.70;6.13;;;8.70;99.90;;;;;;5105692;28;20268;-75
2022/11/03 08:26:51;;;;;;;14.02;7.88;;;8.70;99.90;;;;;;5103828;28;20031;-75
2022/11/03 08:29:29;;;;;;;15.30;8.20;;;8.90;99.90;;;;;;5086466;28;20020;-76
2022/11/03 08:31:54;;;;;;;11.93;7.50;;;9.00;99.90;;;;;;5089867;28;20039;-76
2022/11/03 08:34:20;;;;;;;12.48;6.93;;;9.20;99.90;;;;;;5087154;28;20062;-77
2022/11/03 08:36:46;;;;;;;13.85;6.60;;;9.30;99.90;;;;;;5107268;28;20433;-77
2022/11/03 08:39:12;;;;;;;14.02;6.90;;;9.60;99.90;;;;;;5107174;28;20430;-77
2022/11/03 08:41:38;;;;;;;10.63;5.93;;;9.60;99.90;;;;;;5106938;28;20563;-78
2022/11/03 08:44:04;;;;;;;11.80;6.45;;;9.70;99.90;;;;;;5107819;28;20036;-77
2022/11/03 08:46:30;;;;;;;13.32;6.63;;;9.90;99.90;;;;;;5105303;28;20016;-78
2022/11/03 08:48:56;;;;;;;10.68;6.25;;;9.90;99.90;;;;;;5105552;28;20027;-77
2022/11/03 08:51:21;;;;;;;10.48;5.97;;;10.00;99.90;;;;;;5104897;28;20476;-77
2022/11/03 08:53:52;;;;;;;10.30;5.55;;;10.00;99.90;;;;;;5105497;28;20036;-77
2022/11/03 08:56:19;;;;;;;13.93;6.75;;;10.10;99.90;;;;;;5105069;28;20057;-76
2022/11/03 08:58:45;;;;;;;11.13;4.50;;;10.20;99.90;;;;;;5105477;28;20461;-77
2022/11/03 09:01:12;;;;;;;9.73;5.35;;;10.10;99.90;;;;;;5095036;28;20092;-77
2022/11/03 09:03:38;;;;;;;13.55;5.75;;;10.20;99.90;;;;;;5075777;28;20020;-76
2022/11/03 09:06:04;;;;;;;8.60;4.15;;;10.20;99.90;;;;;;5087984;28;20008;-77
2022/11/03 09:08:30;;;;;;;14.20;6.22;;;10.30;99.90;;;;;;5085636;28;20113;-77
2022/11/03 09:10:55;;;;;;;7.50;4.68;;;10.50;99.90;;;;;;5098666;28;20449;-77
2022/11/03 09:13:21;;;;;;;17.65;6.50;;;10.70;99.90;;;;;;5094683;28;20032;-76
2022/11/03 09:15:47;;;;;;;9.57;5.45;;;11.00;99.90;;;;;;5084746;28;20475;-77
2022/11/03 09:18:12;;;;;;;9.20;4.88;;;11.00;99.90;;;;;;5084146;28;20023;-77
2022/11/03 09:20:38;;;;;;;11.98;4.90;;;11.10;99.90;;;;;;5066526;28;20314;-76
2022/11/03 09:23:04;;;;;;;7.38;4.75;;;11.10;99.90;;;;;;5085229;28;20055;-78
2022/11/03 09:25:37;;;;;;;14.07;4.63;;;11.10;99.90;;;;;;5085991;28;20065;-76
2022/11/03 09:28:03;;;;;;;7.43;4.88;;;11.30;99.90;;;;;;5098442;28;20160;-77
2022/11/03 09:30:29;;;;;;;8.48;5.65;;;11.30;99.90;;;;;;5106664;28;20034;-76
2022/11/03 09:32:54;;;;;;;11.30;4.47;;;11.40;99.90;;;;;;5106061;28;20561;-82
2022/11/03 09:35:20;;;;;;;12.43;5.57;;;11.60;99.90;;;;;;5107465;28;20035;-77
2022/11/03 09:37:45;;;;;;;8.00;4.35;;;11.80;99.90;;;;;;5107343;28;20019;-80
2022/11/03 09:40:14;;;;;;;8.77;4.43;;;11.90;99.90;;;;;;5089677;28;20034;-77
2022/11/03 09:42:40;;;;;;;7.43;4.40;;;12.00;99.90;;;;;;5111638;28;20020;-81
2022/11/03 09:45:08;;;;;;;11.18;5.20;;;12.00;99.90;;;;;;5100457;28;20060;-83
2022/11/03 09:47:42;;;;;;;10.10;4.90;;;12.10;99.90;;;;;;5112690;28;20512;-80
2022/11/03 09:50:15;;;;;;;10.75;4.32;;;12.30;99.90;;;;;;5106377;28;20031;-80
2022/11/03 09:52:40;;;;;;;5.93;3.20;;;12.40;99.90;;;;;;5091753;28;20026;-80
2022/11/03 09:55:19;;;;;;;7.32;3.97;;;12.50;99.90;;;;;;5106243;28;20035;-81
2022/11/03 09:57:46;;;;;;;3.83;2.85;;;12.70;99.90;;;;;;5094265;28;20024;-81
2022/11/03 10:00:18;;;;;;;3.90;3.42;;;12.90;99.90;;;;;;5106178;28;20392;-79
2022/11/03 10:02:44;;;;;;;6.38;2.75;;;13.20;99.90;;;;;;5087584;28;20020;-79
2022/11/03 10:05:13;;;;;;;9.93;4.15;;;13.40;99.90;;;;;;5106015;28;20032;-80
2022/11/03 10:07:41;;;;;;;5.10;3.25;;;13.50;99.90;;;;;;5090543;28;20020;-81
2022/11/03 10:10:16;;;;;;;5.45;2.88;;;13.60;99.90;;;;;;5113919;28;20066;-80
2022/11/03 10:12:42;;;;;;;2.90;2.35;;;13.40;99.90;;;;;;5106060;28;20020;-78
2022/11/03 10:15:18;;;;;;;4.70;2.55;;;13.50;99.90;;;;;;5098697;28;20028;-79
2022/11/03 10:17:45;;;;;;;4.30;2.60;;;13.70;99.90;;;;;;5098757;28;20309;-82
2022/11/03 10:20:13;;;;;;;3.60;2.25;;;13.80;99.90;;;;;;5070890;28;20083;-80
2022/11/03 10:22:41;;;;;;;5.75;2.88;;;13.90;99.90;;;;;;5089385;28;20509;-84
2022/11/03 10:25:29;;;;;;;5.97;3.13;;;14.00;99.90;;;;;;5087427;28;20201;-80
2022/11/03 10:28:16;;;;;;;6.95;3.70;;;14.00;99.90;;;;;;5099875;28;20031;-80
2022/11/03 10:30:57;;;;;;;5.43;2.65;;;14.00;99.90;;;;;;5072676;28;20028;-81
2022/11/03 10:33:34;;;;;;;3.72;2.45;;;14.10;99.90;;;;;;5068770;28;20063;-79
2022/11/03 10:36:20;;;;;;;11.35;2.20;;;14.20;99.90;;;;;;5070177;28;20049;-83
2022/11/03 10:38:47;;;;;;;8.15;2.83;;;14.60;99.90;;;;;;5071075;28;20024;-78
2022/11/03 10:41:15;;;;;;;6.53;2.92;;;14.60;99.90;;;;;;5069720;28;20031;-76
2022/11/03 10:43:44;;;;;;;5.30;2.95;;;14.70;99.90;;;;;;5091772;28;20029;-76
2022/11/03 10:46:24;;;;;;;6.30;2.58;;;14.70;99.90;;;;;;5091692;28;20028;-77
2022/11/03 10:49:01;;;;;;;3.97;3.53;;;14.80;99.90;;;;;;5091423;28;20032;-77
2022/11/03 10:51:28;;;;;;;7.53;3.00;;;14.70;99.90;;;;;;5091445;28;20021;-77
2022/11/03 10:53:54;;;;;;;6.03;2.80;;;14.70;99.90;;;;;;5088793;28;20032;-78
2022/11/03 10:56:20;;;;;;;5.95;3.10;;;;;;;;;;5088034;28;20115;-78
2022/11/03 10:58:46;;;;;;;4.68;3.30;;;14.40;99.90;;;;;;5087770;28;20059;-77
2022/11/03 11:01:11;;;;;;;4.60;2.83;;;14.50;99.90;;;;;;5069379;28;20536;-78
2022/11/03 11:03:41;;;;;;;2.40;2.08;;;14.50;99.90;;;;;;5089149;28;20020;-78
2022/11/03 11:06:28;;;;;;;11.07;2.63;;;14.70;99.90;;;;;;5089495;28;20016;-77
2022/11/03 11:09:00;;;;;;;6.13;2.33;;;14.60;99.90;;;;;;5087961;28;20024;-79
2022/11/03 11:11:26;;;;;;;8.98;4.22;;;14.70;99.90;;;;;;5086696;28;20063;-78
2022/11/03 11:14:40;;;;;;;5.95;2.55;;;14.70;99.90;;;;;;5069270;28;20036;-80
2022/11/03 11:17:42;;;;;;;5.45;2.97;;;14.80;99.90;;;;;;4995824;28;20030;-80
2022/11/03 11:20:23;;;;;;;4.43;2.78;;;14.70;99.90;;;;;;5088251;28;20034;-78
2022/11/03 11:22:49;;;;;;;3.80;2.22;;;14.60;99.90;;;;;;5089338;28;20035;-79
2022/11/03 11:25:17;;;;;;;8.18;2.47;;;14.50;99.90;;;;;;5089690;28;20091;-78
2022/11/03 11:27:46;;;;;;;2.90;2.40;;;14.40;99.90;;;;;;5099971;28;20143;-81
2022/11/03 11:30:17;;;;;;;4.13;2.88;;;14.40;99.90;;;;;;5111600;28;20024;-79
2022/11/03 11:32:54;;;;;;;6.13;2.92;;;14.30;99.90;;;;;;5108146;28;20621;-80
2022/11/03 11:35:23;;;;;;;4.95;2.40;;;14.30;99.90;;;;;;5089188;28;20035;-82
2022/11/03 11:37:49;;;;;;;7.97;3.35;;;14.30;99.90;;;;;;5088295;28;20395;-81
2022/11/03 11:40:24;;;;;;;6.38;2.67;;;14.40;99.90;;;;;;5088074;28;20023;-80
2022/11/03 11:43:05;;;;;;;2.88;2.30;;;14.50;99.90;;;;;;5106346;28;20088;-78
2022/11/03 11:46:08;;;;;;;5.90;3.03;;;14.50;99.90;;;;;;5106837;28;20019;-81
2022/11/03 11:48:34;;;;;;;7.00;3.85;;;14.50;99.90;;;;;;5088620;28;20127;-78
2022/11/03 11:51:01;;;;;;;8.45;3.17;;;14.60;99.90;;;;;;5107401;28;20022;-78
2022/11/03 11:53:36;;;;;;;5.22;3.30;;;14.60;99.90;;;;;;5107653;28;20527;-79
2022/11/03 11:56:02;;;;;;;6.40;3.08;;;14.50;99.90;;;;;;5106742;28;20142;-79
2022/11/03 11:58:45;;;;;;;6.70;3.00;;;14.50;99.90;;;;;;5106043;28;20024;-79
2022/11/03 12:01:29;;;;;;;7.60;3.10;;;14.30;99.90;;;;;;5105374;28;20499;-78
2022/11/03 12:04:04;;;;;;;5.45;2.42;;;14.30;99.90;;;;;;5087602;28;20476;-77
2022/11/03 12:06:34;;;;;;;4.85;2.83;;;14.20;99.90;;;;;;5106123;28;20020;-78
2022/11/03 12:09:23;;;;;;;4.05;3.28;;;14.20;99.90;;;;;;5106394;28;20038;-78
2022/11/03 12:11:57;;;;;;;2.83;2.28;;;14.10;99.90;;;;;;5107433;28;20072;-78
2022/11/03 12:14:38;;;;;;;4.45;2.72;;;14.10;99.90;;;;;;5089057;28;20399;-78
2022/11/03 12:17:16;;;;;;;5.78;3.28;;;14.10;99.90;;;;;;5107312;28;20024;-77
2022/11/03 12:19:48;;;;;;;7.47;3.13;;;14.10;99.90;;;;;;5107012;28;20491;-78
2022/11/03 12:22:23;;;;;;;5.78;3.45;;;14.20;99.90;;;;;;5107253;28;20035;-81
2022/11/03 12:24:51;;;;;;;6.30;3.03;;;14.20;99.90;;;;;;5107097;28;20020;-78
2022/11/03 12:27:38;;;;;;;7.33;3.10;;;14.30;99.90;;;;;;5101122;28;20422;-78
2022/11/03 12:30:11;;;;;;;4.50;2.88;;;14.40;99.90;;;;;;5087103;28;20098;-78
2022/11/03 12:32:36;;;;;;;4.22;2.65;;;14.50;99.90;;;;;;5085649;28;20044;-79
2022/11/03 12:35:04;;;;;;;5.68;2.67;;;14.50;99.90;;;;;;5087235;28;20059;-78
2022/11/03 12:37:30;;;;;;;5.43;3.50;;;14.60;99.90;;;;;;5086993;28;20024;-78
2022/11/03 12:39:55;;;;;;;5.78;3.85;;;14.40;99.90;;;;;;5087168;28;20077;-79
2022/11/03 12:42:23;;;;;;;13.70;3.78;;;14.40;99.90;;;;;;5086680;28;20092;-78
2022/11/03 12:44:49;;;;;;;3.92;3.00;;;14.50;99.90;;;;;;5086576;28;20495;-78
2022/11/03 12:47:15;;;;;;;5.80;2.72;;;14.40;99.90;;;;;;5086910;28;20020;-78
2022/11/03 12:49:41;;;;;;;5.57;2.38;;;14.40;99.90;;;;;;5068437;28;20028;-78
2022/11/03 12:52:07;;;;;;;12.63;3.88;;;14.30;99.90;;;;;;5085914;28;20102;-78
2022/11/03 12:54:33;;;;;;;7.90;4.40;;;14.40;99.90;;;;;;5068211;28;20050;-78
2022/11/03 12:56:58;;;;;;;9.45;3.63;;;14.30;99.90;;;;;;5086643;28;20099;-79
2022/11/03 12:59:24;;;;;;;6.15;2.90;;;14.30;99.90;;;;;;5086732;28;20396;-78
2022/11/03 13:01:50;;;;;;;5.97;3.92;;;14.30;99.90;;;;;;5086233;28;20041;-78
2022/11/03 13:04:15;;;;;;;4.15;2.58;;;14.20;99.90;;;;;;5086373;28;20021;-78
2022/11/03 13:06:41;;;;;;;9.50;3.08;;;14.10;99.90;;;;;;5086470;28;20099;-79
2022/11/03 13:09:07;;;;;;;4.55;2.92;;;13.90;99.90;;;;;;5086850;28;20732;-78
2022/11/03 13:14:16;;;;;;;9.00;2.95;;;13.90;99.90;;;;;;5086499;28;20051;-79
2022/11/03 13:16:42;;;;;;;5.30;3.08;;;13.70;99.90;;;;;;5086163;28;20020;-78
2022/11/03 13:19:09;;;;;;;5.15;3.28;;;13.60;99.90;;;;;;5068174;28;20105;-78
2022/11/03 13:21:35;;;;;;;2.40;1.95;;;13.50;99.90;;;;;;5086177;28;20473;-78
2022/11/03 13:24:01;;;;;;;3.20;2.55;;;13.40;99.90;;;;;;5085893;28;20500;-78
2022/11/03 13:26:27;;;;;;;4.53;3.00;;;13.20;99.90;;;;;;5085664;28;20231;-77
2022/11/03 13:28:52;;;;;;;4.45;2.58;;;13.20;99.90;;;;;;5104518;28;20417;-77
2022/11/03 13:31:18;;;;;;;3.92;2.40;;;13.10;99.90;;;;;;5104647;28;20015;-78